KSZL/SZL METAR and TAF weather

Enter ICAO airport designator
Station Type Date Time Source
KSZL METAR 2021/03/02 16:56 UTC NOAA

KSZL 021656Z 22012KT 10SM FEW250 11/M02 A3018 RMK AO2A SLP228 T01121016 $


Station Type Date Time Source
KSZL Decoded METAR 2021/03/02 16:56 UTC NOAA

Whiteman Air Force Base, MO, United States (KSZL) 38-44N 093-33W
Mar 02, 2021 - 11:56 AM EST / 2021.03.02 1656 UTC
Wind: from the SW (220 degrees) at 14 MPH (12 KT):0
Visibility: 10 mile(s):0
Sky conditions: mostly clear
Temperature: 52.2 F (11.2 C)
Dew Point: 29.1 F (-1.6 C)
Relative Humidity: 40%
Pressure (altimeter): 30.18 in. Hg (1022 hPa)
ob: KSZL 021656Z 22012KT 10SM FEW250 11/M02 A3018 RMK AO2A SLP228 T01121016
cycle: 17

Station Type Date Time Source
KSZL TAF 2021/03/02 11:06 UTC NOAA

TAF KSZL 021100Z 0211/0317 VRB06KT 9999 SKC QNH3021INS
BECMG 0216/0217 21010G15KT 9999 SKC QNH2999INS TX15/0222Z TNM05/0212Z

Example: see airport list